KGYR/GYR METAR and TAF weather

Enter ICAO airport designator
Station Type Date Time Source
KGYR METAR 2019/06/26 19:47 UTC NOAA

KGYR 261947Z VRB05KT 10SM SCT150 SCT250 37/08 A2988


Station Type Date Time Source
KGYR Decoded METAR 2019/06/26 19:47 UTC NOAA

Goodyear Municipal, AZ, United States (KGYR) 33-25N 112-23W
Jun 26, 2019 - 03:47 PM EDT / 2019.06.26 1947 UTC
Wind: Variable at 6 MPH (5 KT):0
Visibility: 10 mile(s):0
Sky conditions: partly cloudy
Temperature: 98 F (37 C)
Heat index: 94.1 F (34.5 C):1
Dew Point: 46 F (8 C)
Relative Humidity: 17%
Pressure (altimeter): 29.88 in. Hg (1011 hPa)
ob: KGYR 261947Z VRB05KT 10SM SCT150 SCT250 37/08 A2988
cycle: 20

Station Type Date Time Source
KGYR TAF UTC NOAA

Error!

Example: see airport list